createdAt,value
2019-04-28T00:04:49.112Z,97250.59
2019-04-28T00:09:51.177Z,97249.47
2019-04-28T00:14:53.131Z,97242.47
2019-04-28T00:19:56.739Z,97246.45
2019-04-28T00:25:09.180Z,97248.09
2019-04-28T00:30:12.889Z,97249.42
2019-04-28T00:35:16.654Z,97252.33
2019-04-28T00:40:18.779Z,97238.03
2019-04-28T00:45:21.485Z,97230.72
2019-04-28T00:50:23.847Z,97236.03
2019-04-28T00:55:25.563Z,97238.59
2019-04-28T01:00:29.111Z,97237.41
2019-04-28T01:05:31.239Z,97238.19
2019-04-28T01:10:33.267Z,97231.90
2019-04-28T01:15:39.859Z,97233.90
2019-04-28T01:20:42.767Z,97232.92
2019-04-28T01:25:45.071Z,97233.95
2019-04-28T01:30:51.556Z,97235.73
2019-04-28T01:35:53.911Z,97234.20
2019-04-28T01:40:57.422Z,97237.47
2019-04-28T01:46:00.164Z,97230.62
2019-04-28T01:51:03.353Z,97233.64
2019-04-28T01:56:05.400Z,97235.80
2019-04-28T02:01:07.225Z,97231.75
2019-04-28T02:06:10.040Z,97240.08
2019-04-28T02:11:12.021Z,97231.91
2019-04-28T02:16:13.970Z,97236.80
2019-04-28T02:21:17.491Z,97232.02
2019-04-28T02:26:19.619Z,97236.30
2019-04-28T02:31:24.408Z,97239.25
2019-04-28T02:36:24.797Z,97244.56
2019-04-28T02:41:26.408Z,97238.75
2019-04-28T02:46:30.674Z,97239.57
2019-04-28T02:51:36.975Z,97237.92
2019-04-28T02:56:40.891Z,97241.55
2019-04-28T03:01:42.148Z,97244.56
2019-04-28T03:06:44.263Z,97246.16
2019-04-28T03:11:46.182Z,97246.81
2019-04-28T03:16:50.806Z,97252.13
2019-04-28T03:21:51.783Z,97251.91
2019-04-28T03:26:56.395Z,97255.66
2019-04-28T03:32:28.066Z,97267.55
2019-04-28T03:37:11.283Z,97264.48
2019-04-28T03:42:13.269Z,97265.34
2019-04-28T03:47:23.588Z,97265.81
2019-04-28T03:52:25.255Z,97268.32
2019-04-28T03:57:26.876Z,97274.91
2019-04-28T04:02:31.041Z,97273.58
2019-04-28T04:07:32.050Z,97283.19
2019-04-28T04:12:44.508Z,97282.98
2019-04-28T04:18:04.989Z,97294.11
2019-04-28T04:23:06.754Z,97293.48
2019-04-28T04:28:10.512Z,97300.92
2019-04-28T04:33:11.864Z,97302.25
2019-04-28T04:38:13.480Z,97305.72
2019-04-28T04:43:15.119Z,97314.05
2019-04-28T04:48:26.626Z,97317.06
2019-04-28T04:53:30.802Z,97326.14
2019-04-28T04:58:34.539Z,97323.34
2019-04-28T05:03:39.692Z,97335.76
2019-04-28T05:08:41.491Z,97337.38
2019-04-28T05:13:43.103Z,97330.61
2019-04-28T05:18:44.822Z,97339.08
2019-04-28T05:23:52.213Z,97345.92
2019-04-28T05:28:53.813Z,97349.83
2019-04-28T05:33:55.422Z,97352.34
2019-04-28T05:38:57.068Z,97349.11
2019-04-28T05:43:59.640Z,97342.55
2019-04-28T05:49:15.567Z,97345.82
2019-04-28T05:54:31.220Z,97353.17
2019-04-28T05:59:50.565Z,97360.66
2019-04-28T06:04:52.504Z,97367.36
2019-04-28T06:09:55.351Z,97367.85
2019-04-28T06:14:56.957Z,97372.38
2019-04-28T06:20:00.175Z,97379.23
2019-04-28T06:25:03.602Z,97379.84
2019-04-28T06:30:06.906Z,97384.69
2019-04-28T06:35:08.843Z,97394.13
2019-04-28T06:40:12.234Z,97389.09
2019-04-28T06:45:14.152Z,97387.77
2019-04-28T06:50:22.895Z,97392.44
2019-04-28T06:55:24.743Z,97396.44
2019-04-28T07:00:26.658Z,97398.94
2019-04-28T07:05:28.264Z,97405.36
2019-04-28T07:10:30.078Z,97410.52
2019-04-28T07:15:31.752Z,97416.22
2019-04-28T07:20:45.615Z,97421.06
2019-04-28T07:25:47.332Z,97419.64
2019-04-28T07:30:49.460Z,97425.84
2019-04-28T07:35:51.175Z,97430.66
2019-04-28T07:40:52.874Z,97433.31
2019-04-28T07:45:54.545Z,97439.59
2019-04-28T07:50:56.222Z,97438.41
2019-04-28T07:55:58.038Z,97444.77
2019-04-28T08:01:00.015Z,97453.88
2019-04-28T08:06:01.719Z,97453.16
2019-04-28T08:11:03.826Z,97455.20
2019-04-28T08:16:06.824Z,97458.58
2019-04-28T08:21:08.414Z,97459.50
2019-04-28T08:26:10.109Z,97460.00
2019-04-28T08:31:13.675Z,97466.92
2019-04-28T08:36:15.282Z,97465.58
2019-04-28T08:41:17.000Z,97467.89
2019-04-28T08:46:18.654Z,97472.45
2019-04-28T08:51:20.437Z,97477.95
2019-04-28T08:56:22.151Z,97474.25
2019-04-28T09:01:24.126Z,97478.23
2019-04-28T09:06:25.842Z,97489.90
2019-04-28T09:11:27.452Z,97487.81
2019-04-28T09:16:29.104Z,97490.19
2019-04-28T09:21:30.851Z,97485.37
2019-04-28T09:26:32.562Z,97491.73
2019-04-28T09:31:34.326Z,97493.28
2019-04-28T09:36:35.942Z,97495.14
2019-04-28T09:41:39.580Z,97487.53
2019-04-28T09:46:43.087Z,97488.55
2019-04-28T09:51:51.693Z,97503.26
2019-04-28T09:56:56.875Z,97491.88
2019-04-28T10:01:57.208Z,97502.14
2019-04-28T10:06:58.923Z,97499.30
2019-04-28T10:12:00.639Z,97497.03
2019-04-28T10:17:02.943Z,97497.25
2019-04-28T10:22:05.245Z,97495.21
2019-04-28T10:27:07.858Z,97495.03
2019-04-28T10:32:09.488Z,97490.32
2019-04-28T10:37:11.200Z,97490.97
2019-04-28T10:42:12.914Z,97493.20
2019-04-28T10:47:16.127Z,97489.42
2019-04-28T10:52:18.042Z,97491.66
2019-04-28T10:57:19.649Z,97496.42
2019-04-28T11:02:21.423Z,97490.47
2019-04-28T11:07:23.446Z,97489.39
2019-04-28T11:12:29.924Z,97493.47
2019-04-28T11:17:31.532Z,97488.02
2019-04-28T11:22:33.289Z,97498.08
2019-04-28T11:27:35.306Z,97486.76
2019-04-28T11:32:38.925Z,97495.28
2019-04-28T11:37:40.736Z,97485.20
2019-04-28T11:42:42.459Z,97479.14
2019-04-28T11:47:44.349Z,97486.84
2019-04-28T11:52:56.174Z,97486.48
2019-04-28T11:58:09.591Z,97490.61
2019-04-28T12:03:24.166Z,97488.56
2019-04-28T12:08:26.302Z,97483.42
2019-04-28T12:15:40.541Z,97485.03
2019-04-28T12:20:42.255Z,97488.09
2019-04-28T12:25:43.991Z,97487.73
2019-04-28T12:30:46.142Z,97486.69
2019-04-28T12:35:48.357Z,97485.73
2019-04-28T12:40:50.522Z,97477.69
2019-04-28T12:45:52.209Z,97482.44
2019-04-28T12:50:54.106Z,97483.77
2019-04-28T12:55:56.135Z,97479.35
2019-04-28T13:01:18.179Z,97475.58
2019-04-28T13:06:21.877Z,97474.25
2019-04-28T13:11:23.374Z,97479.78
2019-04-28T13:16:24.978Z,97470.59
2019-04-28T13:21:26.673Z,97467.87
2019-04-28T13:26:28.298Z,97468.95
2019-04-28T13:31:29.833Z,97467.55
2019-04-28T13:36:31.316Z,97459.80
2019-04-28T13:41:33.060Z,97458.64
2019-04-28T13:46:34.768Z,97456.92
2019-04-28T13:51:36.397Z,97455.92
2019-04-28T13:56:38.231Z,97459.43
2019-04-28T14:01:42.890Z,97454.56
2019-04-28T14:06:46.429Z,97456.72
2019-04-28T14:11:48.093Z,97458.47
2019-04-28T14:16:49.676Z,97454.48
2019-04-28T14:21:51.232Z,97464.59
2019-04-28T14:26:53.036Z,97457.13
2019-04-28T14:31:54.683Z,97463.87
2019-04-28T14:36:56.234Z,97464.30
2019-04-28T14:41:57.835Z,97459.05
2019-04-28T14:46:59.471Z,97467.38
2019-04-28T14:52:01.252Z,97462.68
2019-04-28T14:57:03.252Z,97463.51
2019-04-28T15:02:22.433Z,97463.10
2019-04-28T15:07:38.108Z,97466.50
2019-04-28T15:12:40.122Z,97470.41
2019-04-28T15:17:41.626Z,97474.36
2019-04-28T15:22:43.360Z,97474.83
2019-04-28T15:27:45.166Z,97477.03
2019-04-28T15:32:46.768Z,97485.27
2019-04-28T15:37:48.556Z,97481.88
2019-04-28T15:42:50.175Z,97475.24
2019-04-28T15:47:52.286Z,97480.55
2019-04-28T15:52:54.295Z,97476.95
2019-04-28T15:57:55.974Z,97489.97
2019-04-28T16:02:57.479Z,97480.41
2019-04-28T16:07:59.009Z,97477.81
2019-04-28T16:13:00.511Z,97471.42
2019-04-28T16:18:02.035Z,97466.53
2019-04-28T16:23:04.761Z,97469.02
2019-04-28T16:28:06.359Z,97465.64
2019-04-28T16:33:07.917Z,97466.55
2019-04-28T16:38:09.602Z,97474.39
2019-04-28T16:43:18.470Z,97475.20
2019-04-28T16:48:19.974Z,97467.77
2019-04-28T16:53:21.589Z,97467.98
2019-04-28T16:58:41.832Z,97467.95
2019-04-28T17:03:43.701Z,97467.72
2019-04-28T17:08:45.210Z,97470.19
2019-04-28T17:13:47.201Z,97474.06
2019-04-28T17:18:48.848Z,97476.39
2019-04-28T17:23:51.553Z,97473.28
2019-04-28T17:28:53.610Z,97469.81
2019-04-28T17:33:55.368Z,97478.63
2019-04-28T17:38:58.067Z,97480.31
2019-04-28T17:43:59.662Z,97485.48
2019-04-28T17:49:01.832Z,97490.21
2019-04-28T17:54:04.745Z,97492.00
2019-04-28T17:59:06.321Z,97492.13
2019-04-28T18:04:26.684Z,97492.53
2019-04-28T18:09:29.167Z,97499.28
2019-04-28T18:14:31.487Z,97507.42
2019-04-28T18:19:33.599Z,97510.70
2019-04-28T18:24:35.596Z,97515.50
2019-04-28T18:29:37.376Z,97519.48
2019-04-28T18:34:40.804Z,97519.71
2019-04-28T18:40:02.445Z,97526.93
2019-04-28T18:45:06.019Z,97519.58
2019-04-28T18:50:08.213Z,97523.45
2019-04-28T18:55:10.807Z,97522.00
2019-04-28T19:00:13.598Z,97531.87
2019-04-28T19:05:15.686Z,97529.84
2019-04-28T19:10:19.311Z,97529.22
2019-04-28T19:15:22.910Z,97530.54
2019-04-28T19:20:24.596Z,97518.39
2019-04-28T19:25:26.390Z,97506.23
2019-04-28T19:30:27.864Z,97517.20
2019-04-28T19:35:29.439Z,97522.36
2019-04-28T19:40:31.292Z,97515.28
2019-04-28T19:45:34.878Z,97516.23
2019-04-28T19:50:36.443Z,97514.28
2019-04-28T19:55:39.924Z,97515.28
2019-04-28T20:01:00.077Z,97511.87
2019-04-28T20:06:01.685Z,97510.20
2019-04-28T20:11:03.465Z,97506.23
2019-04-28T20:16:05.039Z,97505.54
2019-04-28T20:21:06.712Z,97499.48
2019-04-28T20:26:08.603Z,97496.50
2019-04-28T20:31:10.294Z,97489.02
2019-04-28T20:36:22.489Z,97482.16
2019-04-28T20:41:26.130Z,97469.81
2019-04-28T20:46:28.707Z,97463.19
2019-04-28T20:51:30.287Z,97458.16
2019-04-28T20:56:31.871Z,97462.23
2019-04-28T21:01:33.506Z,97460.67
2019-04-28T21:06:35.137Z,97474.28
2019-04-28T21:11:36.677Z,97460.94
2019-04-28T21:16:38.199Z,97447.44
2019-04-28T21:21:39.700Z,97415.89
2019-04-28T21:26:41.451Z,97428.41
2019-04-28T21:31:42.932Z,97434.83
2019-04-28T21:36:44.512Z,97430.39
2019-04-28T21:41:46.053Z,97417.75
2019-04-28T21:46:49.526Z,97408.25
2019-04-28T21:51:51.002Z,97403.69
2019-04-28T21:56:52.495Z,97394.88
2019-04-28T22:01:54.375Z,97389.85
2019-04-28T22:06:56.460Z,97395.02
2019-04-28T22:11:58.028Z,97386.34
2019-04-28T22:16:59.764Z,97387.03
2019-04-28T22:22:01.239Z,97387.66
2019-04-28T22:27:03.233Z,97368.77
2019-04-28T22:32:04.699Z,97366.72
2019-04-28T22:37:06.385Z,97369.73
2019-04-28T22:42:08.174Z,97368.27
2019-04-28T22:47:09.834Z,97370.19
2019-04-28T22:52:11.346Z,97363.84
2019-04-28T22:57:17.466Z,97354.44
2019-04-28T23:02:20.949Z,97340.02
2019-04-28T23:07:22.933Z,97356.26
2019-04-28T23:12:24.570Z,97339.05
2019-04-28T23:17:26.299Z,97336.05
2019-04-28T23:22:46.225Z,97324.82
2019-04-28T23:27:39.122Z,97320.61
2019-04-28T23:32:40.596Z,97320.61
2019-04-28T23:37:42.421Z,97314.36
2019-04-28T23:42:45.807Z,97301.72
2019-04-28T23:47:47.330Z,97307.10
2019-04-28T23:52:53.690Z,97304.23
2019-04-28T23:57:55.166Z,97305.69
